createdAt,value
2018-09-23T00:00:35.258Z,0
2018-09-23T00:01:43.291Z,0
2018-09-23T00:02:51.384Z,0
2018-09-23T00:03:59.442Z,0
2018-09-23T00:05:07.505Z,0
2018-09-23T00:06:15.566Z,0
2018-09-23T00:07:23.634Z,0
2018-09-23T00:08:31.705Z,0
2018-09-23T00:09:39.752Z,0
2018-09-23T00:10:47.817Z,0
2018-09-23T00:11:55.881Z,0
2018-09-23T00:13:03.935Z,0
2018-09-23T00:14:11.989Z,0
2018-09-23T00:15:20.065Z,0
2018-09-23T00:16:28.126Z,0
2018-09-23T00:17:36.187Z,0
2018-09-23T00:18:44.249Z,0
2018-09-23T00:19:52.347Z,0
2018-09-23T00:21:00.370Z,0
2018-09-23T00:22:08.470Z,0
2018-09-23T00:23:16.519Z,0
2018-09-23T00:24:24.551Z,0
2018-09-23T00:25:32.602Z,0
2018-09-23T00:26:40.689Z,0
2018-09-23T00:27:48.762Z,0
2018-09-23T00:28:56.820Z,0
2018-09-23T00:30:04.879Z,0
2018-09-23T00:31:12.911Z,0
2018-09-23T00:32:21.001Z,0
2018-09-23T00:33:29.064Z,0
2018-09-23T00:34:37.128Z,0
2018-09-23T00:35:45.187Z,0
2018-09-23T00:36:53.232Z,0
2018-09-23T00:38:01.319Z,0
2018-09-23T00:39:09.387Z,0
2018-09-23T00:40:17.428Z,0
2018-09-23T00:41:25.500Z,0
2018-09-23T00:42:33.560Z,0
2018-09-23T00:43:41.650Z,0
2018-09-23T00:44:49.713Z,0
2018-09-23T00:45:57.773Z,0
2018-09-23T00:47:05.825Z,0
2018-09-23T00:48:13.889Z,0
2018-09-23T00:49:21.940Z,0
2018-09-23T00:50:30.013Z,0
2018-09-23T00:51:38.075Z,0
2018-09-23T00:52:46.130Z,0
2018-09-23T00:53:54.189Z,0
2018-09-23T00:55:02.271Z,0
2018-09-23T00:56:10.329Z,0
2018-09-23T00:57:18.393Z,0
2018-09-23T00:58:26.473Z,0
2018-09-23T00:59:34.553Z,0
2018-09-23T01:00:42.557Z,0
2018-09-23T01:01:50.645Z,0
2018-09-23T01:02:58.706Z,0
2018-09-23T01:04:06.767Z,0
2018-09-23T01:05:14.831Z,0
2018-09-23T01:06:22.859Z,0
2018-09-23T01:07:30.951Z,0
2018-09-23T01:08:39.019Z,0
2018-09-23T01:09:47.077Z,0
2018-09-23T01:10:55.142Z,0
2018-09-23T01:12:03.182Z,0
2018-09-23T01:13:11.282Z,0
2018-09-23T01:14:19.342Z,0
2018-09-23T01:15:27.397Z,0
2018-09-23T01:16:35.461Z,0
2018-09-23T01:17:43.493Z,0
2018-09-23T01:18:51.592Z,0
2018-09-23T01:19:59.644Z,0
2018-09-23T01:21:07.720Z,0
2018-09-23T01:22:15.781Z,0
2018-09-23T01:23:23.853Z,0
2018-09-23T01:24:31.916Z,0
2018-09-23T01:25:39.967Z,0
2018-09-23T01:26:48.040Z,0
2018-09-23T01:27:56.103Z,0
2018-09-23T01:29:04.151Z,0
2018-09-23T01:30:12.215Z,0
2018-09-23T01:31:20.272Z,0
2018-09-23T01:32:28.337Z,0
2018-09-23T01:33:36.412Z,0
2018-09-23T01:34:44.459Z,0
2018-09-23T01:35:52.504Z,0
2018-09-23T01:37:00.586Z,0
2018-09-23T01:38:08.666Z,0
2018-09-23T01:39:16.715Z,0
2018-09-23T01:40:24.775Z,0
2018-09-23T01:41:32.814Z,0
2018-09-23T01:42:40.915Z,0
2018-09-23T01:43:48.960Z,0
2018-09-23T01:44:57.042Z,0
2018-09-23T01:46:05.099Z,0
2018-09-23T01:47:13.130Z,0
2018-09-23T01:48:21.206Z,0
2018-09-23T01:49:29.277Z,0
2018-09-23T01:50:37.346Z,0
2018-09-23T01:51:45.408Z,0
2018-09-23T01:52:53.483Z,0
2018-09-23T01:54:01.524Z,0
2018-09-23T01:55:09.594Z,0
2018-09-23T01:56:17.669Z,0
2018-09-23T01:57:25.720Z,0
2018-09-23T01:58:33.779Z,0
2018-09-23T01:59:41.842Z,0
2018-09-23T02:00:49.899Z,0
2018-09-23T02:01:57.996Z,0
2018-09-23T02:03:06.050Z,0
2018-09-23T02:04:14.105Z,0
2018-09-23T02:05:22.170Z,0
2018-09-23T02:06:30.228Z,0
2018-09-23T02:07:38.292Z,0
2018-09-23T02:08:46.361Z,0
2018-09-23T02:09:54.416Z,0
2018-09-23T02:11:02.473Z,0
2018-09-23T02:12:10.553Z,0
2018-09-23T02:13:18.596Z,0
2018-09-23T02:14:26.670Z,0
2018-09-23T02:15:34.738Z,0
2018-09-23T02:16:43.030Z,0
2018-09-23T02:17:50.864Z,0
2018-09-23T02:18:58.916Z,0
2018-09-23T02:20:06.972Z,0
2018-09-23T02:21:15.113Z,0
2018-09-23T02:22:23.086Z,0
2018-09-23T02:23:31.169Z,0
2018-09-23T02:24:39.221Z,0
2018-09-23T02:25:47.292Z,0
2018-09-23T02:26:55.356Z,0
2018-09-23T02:28:03.391Z,0
2018-09-23T02:29:11.487Z,0
2018-09-23T02:30:19.548Z,0
2018-09-23T02:31:27.603Z,0
2018-09-23T02:32:37.084Z,0
2018-09-23T02:33:43.742Z,0
2018-09-23T02:34:51.801Z,0
2018-09-23T02:35:59.870Z,0
2018-09-23T02:37:07.925Z,0
2018-09-23T02:38:15.999Z,0
2018-09-23T02:39:24.043Z,0
2018-09-23T02:40:32.308Z,0
2018-09-23T02:41:40.376Z,0
2018-09-23T02:42:48.436Z,0
2018-09-23T02:43:56.504Z,0
2018-09-23T02:45:04.572Z,0
2018-09-23T02:46:12.611Z,0
2018-09-23T02:47:20.690Z,0
2018-09-23T02:48:28.756Z,0
2018-09-23T02:49:36.817Z,0
2018-09-23T02:50:44.880Z,0
2018-09-23T02:51:52.909Z,0
2018-09-23T02:53:01.005Z,0
2018-09-23T02:54:09.072Z,0
2018-09-23T02:55:17.127Z,0
2018-09-23T02:56:25.186Z,0
2018-09-23T02:57:33.233Z,0
2018-09-23T02:58:41.323Z,0
2018-09-23T02:59:49.379Z,0
2018-09-23T03:00:57.448Z,0
2018-09-23T03:02:05.523Z,0
2018-09-23T03:03:13.552Z,0
2018-09-23T03:04:21.630Z,0
2018-09-23T03:05:29.697Z,0
2018-09-23T03:06:37.759Z,0
2018-09-23T03:07:45.814Z,0
2018-09-23T03:08:53.889Z,0
2018-09-23T03:10:01.961Z,0
2018-09-23T03:11:10.013Z,0
2018-09-23T03:12:18.072Z,0
2018-09-23T03:13:26.223Z,0
2018-09-23T03:14:34.221Z,0
2018-09-23T03:15:42.264Z,0
2018-09-23T03:16:50.328Z,0
2018-09-23T03:17:58.395Z,0
2018-09-23T03:19:06.463Z,0
2018-09-23T03:20:14.521Z,0
2018-09-23T03:21:22.560Z,0
2018-09-23T03:22:30.648Z,0
2018-09-23T03:23:38.714Z,0
2018-09-23T03:24:46.777Z,0
2018-09-23T03:25:54.834Z,0
2018-09-23T03:27:02.865Z,0
2018-09-23T03:28:10.977Z,0
2018-09-23T03:29:19.023Z,0
2018-09-23T03:30:27.117Z,0
2018-09-23T03:31:35.151Z,0
2018-09-23T03:32:43.189Z,0
2018-09-23T03:33:51.275Z,0
2018-09-23T03:34:59.346Z,0
2018-09-23T03:36:07.391Z,0
2018-09-23T03:37:15.468Z,0
2018-09-23T03:38:23.504Z,0
2018-09-23T03:39:31.598Z,0
2018-09-23T03:40:39.660Z,0
2018-09-23T03:41:47.721Z,0
2018-09-23T03:42:55.773Z,0
2018-09-23T03:44:03.844Z,0
2018-09-23T03:45:11.913Z,0
2018-09-23T03:46:19.970Z,0
2018-09-23T03:47:28.029Z,0
2018-09-23T03:48:36.109Z,0
2018-09-23T03:49:44.155Z,0
2018-09-23T03:50:52.224Z,0
2018-09-23T03:52:00.274Z,0
2018-09-23T03:53:08.351Z,0
2018-09-23T03:54:16.420Z,0
2018-09-23T03:55:24.487Z,0
2018-09-23T03:56:32.563Z,0
2018-09-23T03:57:40.606Z,0
2018-09-23T03:58:48.675Z,0
2018-09-23T03:59:56.725Z,0
2018-09-23T04:01:04.800Z,0
2018-09-23T04:02:12.831Z,0
2018-09-23T04:03:20.919Z,0
2018-09-23T04:04:28.983Z,0
2018-09-23T04:05:37.046Z,0
2018-09-23T04:06:45.107Z,0
2018-09-23T04:07:53.135Z,0
2018-09-23T04:09:01.253Z,0
2018-09-23T04:10:09.285Z,0
2018-09-23T04:11:17.366Z,0
2018-09-23T04:12:25.443Z,0
2018-09-23T04:13:33.468Z,0
2018-09-23T04:14:41.549Z,0
2018-09-23T04:15:49.651Z,0
2018-09-23T04:16:57.692Z,0
2018-09-23T04:18:05.865Z,0
2018-09-23T04:19:13.810Z,0
2018-09-23T04:20:21.860Z,0
2018-09-23T04:21:29.949Z,0
2018-09-23T04:22:38.010Z,0
2018-09-23T04:23:46.070Z,0
2018-09-23T04:24:54.162Z,0
2018-09-23T04:26:02.191Z,0
2018-09-23T04:27:10.243Z,0
2018-09-23T04:28:18.313Z,0
2018-09-23T04:29:26.373Z,0
2018-09-23T04:30:34.445Z,0
2018-09-23T04:31:42.496Z,0
2018-09-23T04:32:50.584Z,0
2018-09-23T04:33:58.684Z,0
2018-09-23T04:35:06.708Z,0
2018-09-23T04:36:14.750Z,0
2018-09-23T04:37:22.794Z,0
2018-09-23T04:38:30.899Z,0
2018-09-23T04:39:38.947Z,0
2018-09-23T04:40:47.056Z,0
2018-09-23T04:41:55.063Z,0
2018-09-23T04:43:03.132Z,0
2018-09-23T04:44:11.318Z,0
2018-09-23T04:45:19.267Z,0
2018-09-23T04:46:27.334Z,0
2018-09-23T04:47:35.404Z,0
2018-09-23T04:48:43.449Z,0
2018-09-23T04:49:51.568Z,4
2018-09-23T04:50:59.578Z,0
2018-09-23T04:52:07.650Z,4
2018-09-23T04:53:15.728Z,4
2018-09-23T04:54:23.775Z,4
2018-09-23T04:55:31.849Z,8
2018-09-23T04:56:39.909Z,8
2018-09-23T04:57:47.968Z,8
2018-09-23T04:58:56.022Z,12
2018-09-23T05:00:04.093Z,12
2018-09-23T05:01:12.147Z,8
2018-09-23T05:02:20.235Z,8
2018-09-23T05:03:28.296Z,16
2018-09-23T05:04:36.354Z,20
2018-09-23T05:05:44.408Z,24
2018-09-23T05:06:52.485Z,28
2018-09-23T05:08:00.536Z,40
2018-09-23T05:09:08.600Z,52
2018-09-23T05:10:16.662Z,68
2018-09-23T05:11:24.737Z,72
2018-09-23T05:12:32.787Z,84
2018-09-23T05:13:40.869Z,108
2018-09-23T05:14:48.932Z,156
2018-09-23T05:15:56.998Z,140
2018-09-23T05:17:05.068Z,148
2018-09-23T05:18:13.104Z,168
2018-09-23T05:19:21.174Z,152
2018-09-23T05:20:29.247Z,152
2018-09-23T05:21:37.312Z,164
2018-09-23T05:22:45.384Z,192
2018-09-23T05:23:53.422Z,192
2018-09-23T05:25:01.507Z,204
2018-09-23T05:26:09.578Z,192
2018-09-23T05:27:17.673Z,172
2018-09-23T05:28:25.707Z,184
2018-09-23T05:29:33.761Z,176
2018-09-23T05:30:41.843Z,176
2018-09-23T05:31:49.897Z,180
2018-09-23T05:32:57.968Z,164
2018-09-23T05:34:06.022Z,172
2018-09-23T05:35:14.101Z,168
2018-09-23T05:36:22.155Z,164
2018-09-23T05:37:30.209Z,196
2018-09-23T05:38:38.275Z,192
2018-09-23T05:39:46.341Z,212
2018-09-23T05:40:54.406Z,240
2018-09-23T05:42:02.464Z,272
2018-09-23T05:43:10.534Z,316
2018-09-23T05:44:18.595Z,304
2018-09-23T05:45:26.663Z,340
2018-09-23T05:46:34.736Z,352
2018-09-23T05:47:42.768Z,292
2018-09-23T05:48:50.878Z,288
2018-09-23T05:49:58.919Z,316
2018-09-23T05:51:06.988Z,276
2018-09-23T05:52:15.058Z,360
2018-09-23T05:53:23.091Z,296
2018-09-23T05:54:31.180Z,308
2018-09-23T05:55:39.249Z,420
2018-09-23T05:56:47.316Z,416
2018-09-23T05:57:55.363Z,332
2018-09-23T05:59:03.424Z,408
2018-09-23T06:00:11.511Z,476
2018-09-23T06:01:19.569Z,756
2018-09-23T06:02:27.624Z,900
2018-09-23T06:03:35.698Z,912
2018-09-23T06:04:43.757Z,768
2018-09-23T06:05:51.821Z,632
2018-09-23T06:06:59.883Z,588
2018-09-23T06:08:07.943Z,608
2018-09-23T06:09:16.015Z,592
2018-09-23T06:10:24.092Z,548
2018-09-23T06:11:32.193Z,488
2018-09-23T06:12:40.329Z,456
2018-09-23T06:13:48.278Z,508
2018-09-23T06:14:56.344Z,552
2018-09-23T06:16:04.419Z,512
2018-09-23T06:17:12.459Z,588
2018-09-23T06:18:20.578Z,548
2018-09-23T06:19:28.595Z,608
2018-09-23T06:20:36.654Z,752
2018-09-23T06:21:44.733Z,748
2018-09-23T06:22:53.056Z,764
2018-09-23T06:24:00.861Z,816
2018-09-23T06:25:08.996Z,844
2018-09-23T06:26:16.994Z,872
2018-09-23T06:27:25.554Z,876
2018-09-23T06:28:33.073Z,916
2018-09-23T06:29:41.453Z,928
2018-09-23T06:30:49.229Z,844
2018-09-23T06:31:57.307Z,788
2018-09-23T06:33:05.364Z,744
2018-09-23T06:34:13.471Z,700
2018-09-23T06:35:21.488Z,804
2018-09-23T06:36:29.568Z,856
2018-09-23T06:37:37.628Z,796
2018-09-23T06:38:45.690Z,936
2018-09-23T06:39:53.810Z,1232
2018-09-23T06:41:01.805Z,1372
2018-09-23T06:42:09.893Z,1776
2018-09-23T06:43:19.956Z,1692
2018-09-23T06:44:28.055Z,1600
2018-09-23T06:45:36.115Z,1080
2018-09-23T06:46:44.139Z,796
2018-09-23T06:47:52.621Z,944
2018-09-23T06:49:00.322Z,1032
2018-09-23T06:50:08.354Z,964
2018-09-23T06:51:16.462Z,1140
2018-09-23T06:52:24.477Z,1476
2018-09-23T06:53:32.527Z,1372
2018-09-23T06:54:40.616Z,1480
2018-09-23T06:55:48.660Z,1500
2018-09-23T06:56:56.755Z,1476
2018-09-23T06:58:04.787Z,1300
2018-09-23T06:59:12.843Z,1444
2018-09-23T07:00:20.938Z,1548
2018-09-23T07:01:28.993Z,1648
2018-09-23T07:02:37.058Z,1528
2018-09-23T07:03:45.136Z,2016
2018-09-23T07:04:53.198Z,2672
2018-09-23T07:06:01.805Z,2292
2018-09-23T07:07:09.539Z,2624
2018-09-23T07:08:17.589Z,2900
2018-09-23T07:09:25.698Z,2868
2018-09-23T07:10:33.727Z,2132
2018-09-23T07:11:41.785Z,1860
2018-09-23T07:12:49.844Z,1908
2018-09-23T07:13:57.914Z,1696
2018-09-23T07:15:05.979Z,2164
2018-09-23T07:16:14.030Z,2152
2018-09-23T07:17:22.101Z,2072
2018-09-23T07:18:30.164Z,1772
2018-09-23T07:19:38.249Z,1548
2018-09-23T07:20:49.216Z,1592
2018-09-23T07:21:57.091Z,1796
2018-09-23T07:23:05.069Z,2008
2018-09-23T07:24:13.171Z,1940
2018-09-23T07:25:21.176Z,1976
2018-09-23T07:26:29.247Z,1952
2018-09-23T07:27:37.567Z,2204
2018-09-23T07:28:45.676Z,2560
2018-09-23T07:29:53.471Z,2544
2018-09-23T07:31:01.504Z,2348
2018-09-23T07:32:09.583Z,1964
2018-09-23T07:33:17.615Z,1896
2018-09-23T07:34:25.713Z,2796
2018-09-23T07:35:33.768Z,2972
2018-09-23T07:36:41.956Z,2252
2018-09-23T07:37:49.903Z,2228
2018-09-23T07:38:58.016Z,2844
2018-09-23T07:40:06.024Z,3548
2018-09-23T07:41:14.081Z,2992
2018-09-23T07:42:22.170Z,2924
2018-09-23T07:43:30.227Z,2636
2018-09-23T07:44:38.648Z,2080
2018-09-23T07:45:46.351Z,2596
2018-09-23T07:46:54.419Z,3532
2018-09-23T07:48:02.492Z,3800
2018-09-23T07:49:10.564Z,5388
2018-09-23T07:50:19.328Z,8596
2018-09-23T07:51:26.678Z,9016
2018-09-23T07:52:35.881Z,6176
2018-09-23T07:53:43.288Z,11136
2018-09-23T07:56:09.605Z,13436
2018-09-23T07:57:17.509Z,13948
2018-09-23T07:59:41.578Z,6508
2018-09-23T08:00:49.588Z,7988
2018-09-23T08:01:57.631Z,9860
2018-09-23T08:03:05.704Z,8280
2018-09-23T08:04:13.805Z,9700
2018-09-23T08:05:21.828Z,11044
2018-09-23T08:06:29.896Z,11976
2018-09-23T08:07:37.965Z,8504
2018-09-23T08:08:46.032Z,6772
2018-09-23T08:09:54.102Z,7392
2018-09-23T08:11:02.169Z,5584
2018-09-23T08:12:10.232Z,8544
2018-09-23T08:13:18.393Z,8932
2018-09-23T08:14:26.595Z,8532
2018-09-23T08:15:34.447Z,8228
2018-09-23T08:16:42.515Z,7648
2018-09-23T08:17:50.565Z,6744
2018-09-23T08:18:58.641Z,9040
2018-09-23T08:20:06.762Z,7616
2018-09-23T08:21:14.786Z,6908
2018-09-23T08:22:22.846Z,11000
2018-09-23T08:23:30.904Z,13208
2018-09-23T08:24:38.967Z,12436
2018-09-23T08:25:47.051Z,12872
2018-09-23T08:26:55.114Z,9960
2018-09-23T08:28:03.156Z,14224
2018-09-23T08:29:11.230Z,15784
2018-09-23T08:30:19.322Z,12120
2018-09-23T08:31:27.390Z,12096
2018-09-23T08:32:35.459Z,15644
2018-09-23T08:33:43.500Z,15588
2018-09-23T08:34:51.572Z,13352
2018-09-23T08:35:59.646Z,12704
2018-09-23T08:37:07.741Z,13340
2018-09-23T08:38:15.823Z,11164
2018-09-23T08:39:23.853Z,11964
2018-09-23T08:40:31.930Z,10224
2018-09-23T08:41:39.985Z,11540
2018-09-23T08:42:48.100Z,13372
2018-09-23T08:43:56.136Z,10008
2018-09-23T08:45:04.195Z,11572
2018-09-23T08:46:12.272Z,14200
2018-09-23T08:47:20.334Z,11844
2018-09-23T08:48:28.543Z,8136
2018-09-23T08:49:36.476Z,6872
2018-09-23T08:50:44.552Z,4852
2018-09-23T08:51:52.738Z,5092
2018-09-23T08:53:00.677Z,4116
2018-09-23T08:54:08.741Z,4232
2018-09-23T08:55:16.807Z,6180
2018-09-23T08:56:24.885Z,4972
2018-09-23T08:57:32.977Z,5344
2018-09-23T08:58:41.012Z,5656
2018-09-23T08:59:49.085Z,8044
2018-09-23T09:00:57.299Z,8628
2018-09-23T09:02:05.224Z,7664
2018-09-23T09:03:13.271Z,7968
2018-09-23T09:04:21.354Z,8660
2018-09-23T09:05:29.427Z,7116
2018-09-23T09:06:37.499Z,7148
2018-09-23T09:07:45.562Z,7300
2018-09-23T09:08:53.632Z,6640
2018-09-23T09:10:01.701Z,10536
2018-09-23T09:11:09.769Z,8788
2018-09-23T09:12:17.846Z,7664
2018-09-23T09:13:25.908Z,7440
2018-09-23T09:14:33.984Z,9812
2018-09-23T09:15:42.053Z,9256
2018-09-23T09:16:50.118Z,12080
2018-09-23T09:17:58.175Z,12444
2018-09-23T09:19:06.258Z,10232
2018-09-23T09:20:14.313Z,6256
2018-09-23T09:21:22.385Z,7412
2018-09-23T09:22:30.457Z,9056
2018-09-23T09:23:38.523Z,10028
2018-09-23T09:24:46.597Z,8080
2018-09-23T09:25:54.672Z,6496
2018-09-23T09:27:02.724Z,9020
2018-09-23T09:28:10.797Z,8320
2018-09-23T09:29:18.864Z,9444
2018-09-23T09:30:26.928Z,11400
2018-09-23T09:31:35.008Z,11256
2018-09-23T09:32:43.034Z,9492
2018-09-23T09:33:51.135Z,9324
2018-09-23T09:34:59.200Z,10864
2018-09-23T09:36:07.275Z,14084
2018-09-23T09:37:15.349Z,13304
2018-09-23T09:38:23.399Z,10548
2018-09-23T09:39:31.478Z,8308
2018-09-23T09:40:39.558Z,9044
2018-09-23T09:41:47.628Z,8800
2018-09-23T09:42:55.693Z,12316
2018-09-23T09:44:03.784Z,15148
2018-09-23T09:45:12.208Z,16544
2018-09-23T09:46:19.879Z,14448
2018-09-23T09:47:27.965Z,13632
2018-09-23T09:48:36.038Z,14276
2018-09-23T09:49:44.104Z,13600
2018-09-23T09:50:52.175Z,11912
2018-09-23T09:52:00.233Z,11108
2018-09-23T09:53:08.310Z,9760
2018-09-23T09:54:16.377Z,9604
2018-09-23T09:55:24.498Z,9740
2018-09-23T09:56:32.512Z,10284
2018-09-23T09:57:40.581Z,10396
2018-09-23T09:58:48.657Z,10280
2018-09-23T09:59:56.715Z,10032
2018-09-23T10:01:04.785Z,8092
2018-09-23T10:02:12.832Z,8384
2018-09-23T10:03:20.930Z,7332
2018-09-23T10:04:28.999Z,8720
2018-09-23T10:05:37.094Z,7128
2018-09-23T10:06:45.143Z,9016
2018-09-23T10:07:53.165Z,6380
2018-09-23T10:09:01.274Z,9292
2018-09-23T10:10:09.338Z,7388
2018-09-23T10:11:17.414Z,7572
2018-09-23T10:12:25.491Z,11020
2018-09-23T10:13:33.535Z,12288
2018-09-23T10:14:41.625Z,12928
2018-09-23T10:15:49.687Z,13056
2018-09-23T10:16:57.748Z,14480
2018-09-23T10:18:05.826Z,12684
2018-09-23T10:19:13.885Z,10192
2018-09-23T10:20:21.951Z,11000
2018-09-23T10:21:30.041Z,14900
2018-09-23T10:22:38.117Z,18496
2018-09-23T10:23:46.296Z,13908
2018-09-23T10:24:54.239Z,13280
2018-09-23T10:26:02.296Z,12460
2018-09-23T10:27:10.382Z,11564
2018-09-23T10:28:18.434Z,17324
2018-09-23T10:29:26.510Z,17140
2018-09-23T10:30:34.584Z,18080
2018-09-23T10:31:42.706Z,13412
2018-09-23T10:32:50.725Z,11548
2018-09-23T10:33:58.797Z,10368
2018-09-23T10:35:06.855Z,10416
2018-09-23T10:36:15.000Z,6528
2018-09-23T10:37:22.966Z,9736
2018-09-23T10:38:31.065Z,7072
2018-09-23T10:39:39.141Z,5872
2018-09-23T10:40:47.215Z,6424
2018-09-23T10:41:55.277Z,6268
2018-09-23T10:43:03.332Z,4652
2018-09-23T10:44:11.416Z,7748
2018-09-23T10:45:19.479Z,6072
2018-09-23T10:46:27.559Z,8288
2018-09-23T10:47:35.632Z,7236
2018-09-23T10:48:43.677Z,5804
2018-09-23T10:49:51.770Z,7100
2018-09-23T10:50:59.830Z,9068
2018-09-23T10:52:07.900Z,10896
2018-09-23T10:53:15.996Z,7288
2018-09-23T10:54:24.040Z,10588
2018-09-23T10:55:32.159Z,12036
2018-09-23T10:56:40.181Z,13592
2018-09-23T10:57:48.241Z,16480
2018-09-23T10:58:56.327Z,12728
2018-09-23T11:00:04.392Z,11132
2018-09-23T11:01:12.449Z,10196
2018-09-23T11:02:20.526Z,15676
2018-09-23T11:03:28.612Z,15552
2018-09-23T11:04:36.677Z,12960
2018-09-23T11:05:44.746Z,18432
2018-09-23T11:06:52.786Z,13044
2018-09-23T11:08:00.884Z,11824
2018-09-23T11:09:08.950Z,13416
2018-09-23T11:10:17.032Z,16244
2018-09-23T11:11:25.091Z,15436
2018-09-23T11:12:33.138Z,12480
2018-09-23T11:13:41.231Z,15088
2018-09-23T11:14:49.295Z,14304
2018-09-23T11:15:57.375Z,14028
2018-09-23T11:17:05.430Z,14288
2018-09-23T11:18:13.520Z,15320
2018-09-23T11:19:21.573Z,12868
2018-09-23T11:20:29.660Z,9156
2018-09-23T11:21:37.727Z,11292
2018-09-23T11:22:45.803Z,14780
2018-09-23T11:23:53.864Z,13068
2018-09-23T11:25:01.930Z,13912
2018-09-23T11:26:10.031Z,16308
2018-09-23T11:27:18.212Z,11636
2018-09-23T11:28:26.460Z,10600
2018-09-23T11:29:34.218Z,14496
2018-09-23T11:30:42.609Z,12220
2018-09-23T11:31:50.343Z,9524
2018-09-23T11:32:58.418Z,12296
2018-09-23T11:34:06.497Z,11104
2018-09-23T11:35:14.580Z,10624
2018-09-23T11:36:22.636Z,8332
2018-09-23T11:37:30.714Z,9136
2018-09-23T11:38:38.774Z,8208
2018-09-23T11:39:46.851Z,9552
2018-09-23T11:40:54.928Z,8588
2018-09-23T11:42:02.965Z,9184
2018-09-23T11:43:11.051Z,9052
2018-09-23T11:44:19.147Z,13188
2018-09-23T11:45:27.222Z,13116
2018-09-23T11:46:35.314Z,12148
2018-09-23T11:47:43.325Z,10640
2018-09-23T11:48:51.425Z,15276
2018-09-23T11:49:59.481Z,16600
2018-09-23T11:51:07.554Z,16380
2018-09-23T11:52:15.593Z,17120
2018-09-23T11:53:23.689Z,18208
2018-09-23T11:54:31.778Z,16200
2018-09-23T11:55:39.846Z,20800
2018-09-23T11:56:47.906Z,19680
2018-09-23T11:57:55.987Z,16776
2018-09-23T11:59:04.184Z,17440
2018-09-23T12:00:12.118Z,17280
2018-09-23T12:01:20.184Z,14268
2018-09-23T12:02:30.885Z,13392
2018-09-23T12:03:38.948Z,16248
2018-09-23T12:04:47.025Z,15192
2018-09-23T12:06:08.820Z,13440
2018-09-23T12:07:17.103Z,14692
2018-09-23T12:08:25.580Z,12892
2018-09-23T12:09:33.425Z,13184
2018-09-23T12:10:41.533Z,11484
2018-09-23T12:11:49.595Z,17440
2018-09-23T12:12:57.658Z,14152
2018-09-23T12:14:05.732Z,11168
2018-09-23T12:15:13.815Z,11008
2018-09-23T12:16:21.867Z,9972
2018-09-23T12:17:30.078Z,11664
2018-09-23T12:18:38.027Z,10172
2018-09-23T12:19:46.084Z,10060
2018-09-23T12:20:54.151Z,11492
2018-09-23T12:22:02.228Z,13256
2018-09-23T12:23:10.282Z,11284
2018-09-23T12:24:18.368Z,9460
2018-09-23T12:25:26.563Z,9668
2018-09-23T12:26:34.521Z,11104
2018-09-23T12:27:42.565Z,8920
2018-09-23T12:28:51.032Z,5964
2018-09-23T12:29:58.728Z,6428
2018-09-23T12:31:06.799Z,10240
2018-09-23T12:32:14.878Z,11588
2018-09-23T12:33:22.953Z,9852
2018-09-23T12:34:31.006Z,9740
2018-09-23T12:35:39.084Z,12676
2018-09-23T12:36:47.165Z,11552
2018-09-23T12:37:55.223Z,9020
2018-09-23T12:39:03.273Z,11268
2018-09-23T12:40:11.367Z,9368
2018-09-23T12:41:19.439Z,8428
2018-09-23T12:42:27.506Z,7032
2018-09-23T12:43:35.782Z,5280
2018-09-23T12:44:43.860Z,5908
2018-09-23T12:45:51.934Z,5488
2018-09-23T12:46:59.989Z,6484
2018-09-23T12:48:08.066Z,5824
2018-09-23T12:49:16.150Z,5952
2018-09-23T12:50:24.205Z,6104
2018-09-23T12:51:32.279Z,9416
2018-09-23T12:52:40.337Z,6472
2018-09-23T12:53:48.409Z,6292
2018-09-23T12:54:56.490Z,5672
2018-09-23T12:56:04.556Z,5772
2018-09-23T12:57:12.601Z,6164
2018-09-23T12:58:20.695Z,6240
2018-09-23T12:59:28.783Z,5948
2018-09-23T13:00:36.839Z,7424
2018-09-23T13:01:44.902Z,6852
2018-09-23T13:02:52.962Z,6400
2018-09-23T13:04:01.058Z,7036
2018-09-23T13:05:09.158Z,7852
2018-09-23T13:06:17.201Z,7612
2018-09-23T13:07:25.256Z,7920
2018-09-23T13:08:33.308Z,8048
2018-09-23T13:09:41.401Z,8156
2018-09-23T13:10:49.462Z,7784
2018-09-23T13:11:57.543Z,8008
2018-09-23T13:13:05.615Z,8820
2018-09-23T13:14:13.672Z,9644
2018-09-23T13:15:21.746Z,9916
2018-09-23T13:16:29.814Z,9336
2018-09-23T13:17:37.883Z,9604
2018-09-23T13:18:46.017Z,9788
2018-09-23T13:19:54.030Z,9720
2018-09-23T13:21:02.236Z,10000
2018-09-23T13:22:10.190Z,10192
2018-09-23T13:23:18.232Z,11480
2018-09-23T13:24:27.882Z,11916
2018-09-23T13:25:34.386Z,10680
2018-09-23T13:26:42.453Z,9872
2018-09-23T13:27:50.539Z,9348
2018-09-23T13:28:58.650Z,8728
2018-09-23T13:30:06.676Z,10924
2018-09-23T13:31:14.745Z,11060
2018-09-23T13:32:22.773Z,10968
2018-09-23T13:33:30.875Z,9756
2018-09-23T13:34:40.825Z,9456
2018-09-23T13:35:47.032Z,8844
2018-09-23T13:36:55.087Z,9656
2018-09-23T13:38:03.155Z,9688
2018-09-23T13:39:11.393Z,8960
2018-09-23T13:40:19.305Z,8388
2018-09-23T13:41:27.377Z,7668
2018-09-23T13:42:35.465Z,10748
2018-09-23T13:43:43.500Z,9176
2018-09-23T13:44:51.575Z,10340
2018-09-23T13:45:59.671Z,9700
2018-09-23T13:47:07.735Z,10052
2018-09-23T13:48:15.790Z,10144
2018-09-23T13:49:23.884Z,9360
2018-09-23T13:50:31.936Z,8744
2018-09-23T13:51:40.016Z,7556
2018-09-23T13:52:48.072Z,8540
2018-09-23T13:53:56.155Z,8596
2018-09-23T13:55:04.224Z,8852
2018-09-23T13:56:12.300Z,8504
2018-09-23T13:57:20.361Z,7648
2018-09-23T13:58:28.432Z,5796
2018-09-23T13:59:36.517Z,6880
2018-09-23T14:00:44.569Z,7532
2018-09-23T14:01:52.650Z,6900
2018-09-23T14:03:00.708Z,5444
2018-09-23T14:04:08.777Z,5548
2018-09-23T14:05:16.859Z,6256
2018-09-23T14:06:24.931Z,6044
2018-09-23T14:07:32.978Z,5500
2018-09-23T14:08:41.261Z,4036
2018-09-23T14:09:49.643Z,3832
2018-09-23T14:10:57.399Z,4188
2018-09-23T14:12:05.534Z,3268
2018-09-23T14:13:13.531Z,3632
2018-09-23T14:14:21.617Z,3240
2018-09-23T14:15:29.688Z,2936
2018-09-23T14:16:37.763Z,2800
2018-09-23T14:17:45.834Z,2860
2018-09-23T14:18:53.889Z,3748
2018-09-23T14:20:01.962Z,3756
2018-09-23T14:21:10.031Z,2848
2018-09-23T14:22:18.104Z,3108
2018-09-23T14:23:26.196Z,2868
2018-09-23T14:24:34.251Z,4472
2018-09-23T14:25:42.307Z,8028
2018-09-23T14:26:50.385Z,8112
2018-09-23T14:27:58.460Z,7268
2018-09-23T14:29:06.514Z,8976
2018-09-23T14:30:14.599Z,7456
2018-09-23T14:31:22.946Z,8492
2018-09-23T14:32:30.906Z,10280
2018-09-23T14:33:38.972Z,7812
2018-09-23T14:34:46.939Z,9276
2018-09-23T14:35:55.244Z,7596
2018-09-23T14:37:03.666Z,8228
2018-09-23T14:38:11.076Z,6456
2018-09-23T14:39:19.220Z,7824
2018-09-23T14:40:27.208Z,10688
2018-09-23T14:41:35.313Z,6724
2018-09-23T14:42:43.490Z,7412
2018-09-23T14:43:52.018Z,9240
2018-09-23T14:45:00.224Z,9252
2018-09-23T14:46:08.157Z,8584
2018-09-23T14:47:16.063Z,9920
2018-09-23T14:48:24.313Z,8804
2018-09-23T14:49:32.085Z,8596
2018-09-23T14:50:39.973Z,7864
2018-09-23T14:51:48.437Z,6972
2018-09-23T14:52:55.999Z,8164
2018-09-23T14:54:04.115Z,8128
2018-09-23T14:55:12.204Z,8424
2018-09-23T14:56:20.194Z,8244
2018-09-23T14:57:28.271Z,7320
2018-09-23T14:58:36.350Z,6660
2018-09-23T14:59:44.475Z,6132
2018-09-23T15:00:52.483Z,5988
2018-09-23T15:02:00.593Z,6580
2018-09-23T15:03:08.644Z,8048
2018-09-23T15:04:16.713Z,6416
2018-09-23T15:05:24.759Z,6608
2018-09-23T15:06:32.857Z,7420
2018-09-23T15:07:40.909Z,5508
2018-09-23T15:08:48.980Z,5200
2018-09-23T15:09:57.048Z,5780
2018-09-23T15:11:05.118Z,5568
2018-09-23T15:12:13.162Z,7032
2018-09-23T15:13:21.269Z,5092
2018-09-23T15:14:29.332Z,6028
2018-09-23T15:15:37.389Z,6424
2018-09-23T15:16:46.175Z,2896
2018-09-23T15:17:53.528Z,2612
2018-09-23T15:19:01.621Z,2524
2018-09-23T15:20:09.666Z,2440
2018-09-23T15:21:17.752Z,2444
2018-09-23T15:22:25.828Z,2488
2018-09-23T15:23:33.902Z,2316
2018-09-23T15:24:41.940Z,2360
2018-09-23T15:25:50.025Z,2352
2018-09-23T15:26:58.300Z,2396
2018-09-23T15:28:06.161Z,2440
2018-09-23T15:29:14.242Z,2460
2018-09-23T15:30:22.626Z,2540
2018-09-23T15:31:30.472Z,2736
2018-09-23T15:32:38.445Z,2964
2018-09-23T15:33:46.699Z,2996
2018-09-23T15:34:54.660Z,3000
2018-09-23T15:36:02.752Z,3284